Time;durP1;ratioP1;P1;durP2;ratioP2;P2;SDS_P1;SDS_P2;PMS_P1;PMS_P2;Temp;Humidity;BMP_temperature;BMP_pressure;BME280_temperature;BME280_humidity;BME280_pressure;Samples;Min_cycle;Max_cycle;Signal;HPM_P1;HPM_P2
2023/04/25 00:01:03;;;;;;;12.90;7.13;;;;;;;;;;5113622;28;20676;-78
2023/04/25 00:03:30;;;;;;;11.33;6.17;;;;;;;;;;5113604;28;20201;-79
2023/04/25 00:05:57;;;;;;;10.10;6.07;;;;;;;;;;5113645;28;20327;-78
2023/04/25 00:08:25;;;;;;;10.70;5.87;;;;;;;;;;5113701;28;20192;-78
2023/04/25 00:10:53;;;;;;;11.17;5.97;;;;;;;;;;5113524;28;20223;-78
2023/04/25 00:13:21;;;;;;;11.23;5.97;;;;;;;;;;5113338;28;20280;-78
2023/04/25 00:15:49;;;;;;;19.93;6.37;;;;;;;;;;5113633;28;20205;-78
2023/04/25 00:18:17;;;;;;;13.50;5.93;;;;;;;;;;5113559;28;20661;-79
2023/04/25 00:20:46;;;;;;;14.37;7.13;;;;;;;;;;5113508;28;20195;-79
2023/04/25 00:23:17;;;;;;;13.97;7.60;;;;;;;;;;5112947;28;20206;-79
2023/04/25 00:25:44;;;;;;;14.43;8.70;;;;;;;;;;5113251;28;20225;-78
2023/04/25 00:28:12;;;;;;;14.70;7.87;;;;;;;;;;5112926;28;20240;-79
2023/04/25 00:30:40;;;;;;;12.87;7.20;;;;;;;;;;5113044;28;20207;-78
2023/04/25 00:33:07;;;;;;;12.27;5.80;;;;;;;;;;5113485;28;20224;-79
2023/04/25 00:35:34;;;;;;;12.07;5.73;;;;;;;;;;5113293;28;20283;-79
2023/04/25 00:38:02;;;;;;;14.03;5.47;;;;;;;;;;5112701;28;20284;-77
2023/04/25 00:40:29;;;;;;;10.50;5.03;;;;;;;;;;5113097;28;20251;-78
2023/04/25 00:42:56;;;;;;;11.83;5.33;;;;;;;;;;5112953;28;20239;-77
2023/04/25 00:45:28;;;;;;;16.40;5.33;;;;;;;;;;5112588;28;20338;-78
2023/04/25 00:47:56;;;;;;;14.17;5.10;;;;;;;;;;5113298;28;20205;-78
2023/04/25 00:50:23;;;;;;;15.77;5.33;;;;;;;;;;5113077;28;20289;-79
2023/04/25 00:52:50;;;;;;;11.07;5.30;;;;;;;;;;5112334;28;20289;-78
2023/04/25 00:55:18;;;;;;;11.67;5.13;;;;;;;;;;5112601;28;20197;-78
2023/04/25 00:57:45;;;;;;;13.20;5.67;;;;;;;;;;5112735;28;20225;-77
2023/04/25 01:00:13;;;;;;;11.27;5.20;;;;;;;;;;5112452;28;20235;-78
2023/04/25 01:02:42;;;;;;;17.27;5.60;;;;;;;;;;5112718;28;20196;-79
2023/04/25 01:05:10;;;;;;;12.57;5.47;;;;;;;;;;5112318;28;20727;-78
2023/04/25 01:07:37;;;;;;;10.87;5.00;;;;;;;;;;5112222;28;20700;-78
2023/04/25 01:10:04;;;;;;;11.87;4.87;;;;;;;;;;5112199;28;20685;-78
2023/04/25 01:12:31;;;;;;;13.27;5.40;;;;;;;;;;5112503;28;20230;-79
2023/04/25 01:14:59;;;;;;;13.13;5.37;;;;;;;;;;5112219;28;20295;-78
2023/04/25 01:17:27;;;;;;;14.53;5.10;;;;;;;;;;5112475;28;20206;-78
2023/04/25 01:19:55;;;;;;;10.90;5.67;;;;;;;;;;5112495;28;20232;-79
2023/04/25 01:22:24;;;;;;;13.67;5.60;;;;;;;;;;5111902;28;20279;-78
2023/04/25 01:24:51;;;;;;;14.93;5.17;;;;;;;;;;5111906;28;20236;-78
2023/04/25 01:27:20;;;;;;;8.57;5.13;;;;;;;;;;5112089;28;20202;-78
2023/04/25 01:29:48;;;;;;;16.13;6.40;;;;;;;;;;5111953;28;20196;-79
2023/04/25 01:32:15;;;;;;;16.37;7.10;;;;;;;;;;5112506;28;20208;-78
2023/04/25 01:34:42;;;;;;;15.07;7.80;;;;;;;;;;5111984;28;20216;-78
2023/04/25 01:37:09;;;;;;;13.27;7.50;;;;;;;;;;5111921;28;20295;-78
2023/04/25 01:39:38;;;;;;;13.33;6.17;;;;;;;;;;5111820;28;20299;-79
2023/04/25 01:42:05;;;;;;;11.20;6.17;;;;;;;;;;5111889;28;20267;-78
2023/04/25 01:44:32;;;;;;;11.00;5.93;;;;;;;;;;5111593;28;20286;-79
2023/04/25 01:46:59;;;;;;;13.03;6.30;;;;;;;;;;5112200;28;20673;-78
2023/04/25 01:49:27;;;;;;;14.73;6.07;;;;;;;;;;5111651;28;20671;-79
2023/04/25 01:51:54;;;;;;;13.73;6.37;;;;;;;;;;5111230;28;20717;-79
2023/04/25 01:54:21;;;;;;;12.70;6.10;;;;;;;;;;5103910;28;20200;-78
2023/04/25 01:56:53;;;;;;;11.87;6.30;;;;;;;;;;5091993;28;20652;-78
2023/04/25 01:59:21;;;;;;;13.60;6.53;;;;;;;;;;5091780;28;20200;-78
2023/04/25 02:01:48;;;;;;;15.60;5.97;;;;;;;;;;5091576;28;20195;-79
2023/04/25 02:04:16;;;;;;;17.10;6.67;;;;;;;;;;5091062;28;20196;-78
2023/04/25 02:06:43;;;;;;;15.27;6.43;;;;;;;;;;5091222;28;20228;-78
2023/04/25 02:09:10;;;;;;;13.70;5.90;;;;;;;;;;5091455;28;20638;-78
2023/04/25 02:11:37;;;;;;;15.67;6.33;;;;;;;;;;5091312;28;20191;-78
2023/04/25 02:14:06;;;;;;;15.70;6.27;;;;;;;;;;5106446;28;20287;-78
2023/04/25 02:16:33;;;;;;;14.80;6.40;;;;;;;;;;5115606;28;21030;-78
2023/04/25 02:19:00;;;;;;;11.33;6.83;;;;;;;;;;5115826;28;20227;-78
2023/04/25 02:21:27;;;;;;;18.07;6.63;;;;;;;;;;5116194;28;20295;-78
2023/04/25 02:23:54;;;;;;;18.67;7.27;;;;;;;;;;5115612;28;20295;-78
2023/04/25 02:26:23;;;;;;;18.30;6.63;;;;;;;;;;5115649;28;20231;-78
2023/04/25 02:28:51;;;;;;;12.63;6.83;;;;;;;;;;5115889;28;20208;-78
2023/04/25 02:31:19;;;;;;;12.57;6.50;;;;;;;;;;5115305;28;20199;-78
2023/04/25 02:33:47;;;;;;;16.60;6.67;;;;;;;;;;5115051;28;20198;-78
2023/04/25 02:36:15;;;;;;;17.17;6.93;;;;;;;;;;5115522;28;20290;-79
2023/04/25 02:38:42;;;;;;;16.63;6.70;;;;;;;;;;5115814;28;20285;-77
2023/04/25 02:41:09;;;;;;;12.37;7.07;;;;;;;;;;5115490;28;20199;-77
2023/04/25 02:43:36;;;;;;;16.03;7.43;;;;;;;;;;5114879;28;20311;-78
2023/04/25 02:46:03;;;;;;;16.83;7.50;;;;;;;;;;5115368;28;20320;-77
2023/04/25 02:48:32;;;;;;;14.13;7.47;;;;;;;;;;5114576;28;20231;-78
2023/04/25 02:50:59;;;;;;;19.97;7.87;;;;;;;;;;5115563;28;20219;-79
2023/04/25 02:53:27;;;;;;;20.03;7.90;;;;;;;;;;5115162;28;20244;-77
2023/04/25 02:55:58;;;;;;;16.83;7.53;;;;;;;;;;5114957;28;20292;-78
2023/04/25 02:58:25;;;;;;;17.30;7.17;;;;;;;;;;5115139;28;20200;-76
2023/04/25 03:00:52;;;;;;;12.43;6.67;;;;;;;;;;5115035;28;20234;-78
2023/04/25 03:03:21;;;;;;;17.07;7.00;;;;;;;;;;5114457;28;20227;-77
2023/04/25 03:05:50;;;;;;;17.33;6.80;;;;;;;;;;5115052;28;20237;-78
2023/04/25 03:08:17;;;;;;;19.50;7.13;;;;;;;;;;5115250;28;20191;-77
2023/04/25 03:10:44;;;;;;;13.83;7.60;;;;;;;;;;5114691;28;20227;-77
2023/04/25 03:13:11;;;;;;;17.17;7.77;;;;;;;;;;5114872;28;20194;-78
2023/04/25 03:15:39;;;;;;;15.27;8.37;;;;;;;;;;5114807;28;20228;-78
2023/04/25 03:18:06;;;;;;;15.27;7.73;;;;;;;;;;5114517;28;20295;-78
2023/04/25 03:20:33;;;;;;;15.07;7.27;;;;;;;;;;5114732;28;20229;-78
2023/04/25 03:23:02;;;;;;;16.90;7.73;;;;;;;;;;5115015;28;20197;-78
2023/04/25 03:25:29;;;;;;;17.83;7.63;;;;;;;;;;5113804;28;20314;-78
2023/04/25 03:27:56;;;;;;;12.80;6.80;;;;;;;;;;5114525;28;20200;-78
2023/04/25 03:30:24;;;;;;;16.47;7.50;;;;;;;;;;5114632;28;20291;-78
2023/04/25 03:32:51;;;;;;;14.93;7.30;;;;;;;;;;5113784;28;20225;-78
2023/04/25 03:35:18;;;;;;;19.97;7.80;;;;;;;;;;5114147;28;20284;-79
2023/04/25 03:37:45;;;;;;;17.20;7.30;;;;;;;;;;5114242;28;20211;-78
2023/04/25 03:40:14;;;;;;;15.20;6.77;;;;;;;;;;5114285;28;20190;-77
2023/04/25 03:42:41;;;;;;;14.87;6.67;;;;;;;;;;5114072;28;20844;-78
2023/04/25 03:45:09;;;;;;;19.07;6.83;;;;;;;;;;5114032;28;20672;-77
2023/04/25 03:47:36;;;;;;;17.27;6.57;;;;;;;;;;5113716;28;20240;-77
2023/04/25 03:50:03;;;;;;;13.93;6.23;;;;;;;;;;5114196;28;20283;-78
2023/04/25 03:52:31;;;;;;;16.77;6.50;;;;;;;;;;5113803;28;20286;-77
2023/04/25 03:54:58;;;;;;;15.90;6.73;;;;;;;;;;5113869;28;20636;-77
2023/04/25 03:57:26;;;;;;;21.07;6.87;;;;;;;;;;5113841;28;20790;-77
2023/04/25 03:59:53;;;;;;;15.90;6.90;;;;;;;;;;5113723;28;20253;-77
2023/04/25 04:02:21;;;;;;;13.57;6.53;;;;;;;;;;5113873;28;20290;-77
2023/04/25 04:04:48;;;;;;;13.67;6.53;;;;;;;;;;5113822;28;20284;-77
2023/04/25 04:07:15;;;;;;;16.27;6.50;;;;;;;;;;5113777;28;20322;-78
2023/04/25 04:09:42;;;;;;;12.33;6.40;;;;;;;;;;5113868;28;20290;-76
2023/04/25 04:12:09;;;;;;;15.37;6.47;;;;;;;;;;5113655;28;20287;-77
2023/04/25 04:14:38;;;;;;;17.90;6.73;;;;;;;;;;5113535;28;20208;-77
2023/04/25 04:17:05;;;;;;;13.90;6.10;;;;;;;;;;5113415;28;20296;-77
2023/04/25 04:19:32;;;;;;;14.47;6.37;;;;;;;;;;5113512;28;20627;-78
2023/04/25 04:22:00;;;;;;;11.87;6.30;;;;;;;;;;5113366;28;20306;-76
2023/04/25 04:24:27;;;;;;;14.37;6.33;;;;;;;;;;5113645;28;20303;-77
2023/04/25 04:26:54;;;;;;;16.77;6.73;;;;;;;;;;5113459;28;20322;-78
2023/04/25 04:29:22;;;;;;;12.87;6.37;;;;;;;;;;5113147;28;20282;-79
2023/04/25 04:31:52;;;;;;;14.57;7.00;;;;;;;;;;5113252;28;20708;-78
2023/04/25 04:34:19;;;;;;;12.50;7.23;;;;;;;;;;5113256;28;20213;-78
2023/04/25 04:36:46;;;;;;;20.33;7.73;;;;;;;;;;5111935;28;20294;-75
2023/04/25 04:39:14;;;;;;;13.40;7.47;;;;;;;;;;5112908;28;20198;-77
2023/04/25 04:41:42;;;;;;;15.03;7.03;;;;;;;;;;5113260;28;20254;-77
2023/04/25 04:44:09;;;;;;;16.10;7.67;;;;;;;;;;5112602;28;20194;-79
2023/04/25 04:46:41;;;;;;;16.40;7.77;;;;;;;;;;5112998;28;20261;-78
2023/04/25 04:49:10;;;;;;;17.03;7.40;;;;;;;;;;5113016;28;20199;-80
2023/04/25 04:51:37;;;;;;;13.40;7.20;;;;;;;;;;5112817;28;20229;-78
2023/04/25 04:54:05;;;;;;;21.37;7.53;;;;;;;;;;5112737;28;20619;-79
2023/04/25 04:56:32;;;;;;;19.20;7.77;;;;;;;;;;5112548;28;20195;-79
2023/04/25 04:58:59;;;;;;;16.20;8.20;;;;;;;;;;5112676;28;20196;-79
2023/04/25 05:01:26;;;;;;;18.73;7.27;;;;;;;;;;5112425;28;20289;-78
2023/04/25 05:03:54;;;;;;;13.60;7.30;;;;;;;;;;5112866;28;20282;-79
2023/04/25 05:06:23;;;;;;;14.60;7.07;;;;;;;;;;5112479;28;20235;-78
2023/04/25 05:08:50;;;;;;;18.20;7.50;;;;;;;;;;5112444;28;20243;-78
2023/04/25 05:11:17;;;;;;;17.50;7.40;;;;;;;;;;5112553;28;20284;-79
2023/04/25 05:13:45;;;;;;;16.23;7.57;;;;;;;;;;5111862;28;20208;-79
2023/04/25 05:16:12;;;;;;;16.87;8.50;;;;;;;;;;5112455;28;20282;-79
2023/04/25 05:18:40;;;;;;;13.43;7.20;;;;;;;;;;5112796;28;20227;-79
2023/04/25 05:21:07;;;;;;;14.67;6.77;;;;;;;;;;5112345;28;20644;-78
2023/04/25 05:23:36;;;;;;;17.30;7.13;;;;;;;;;;5112034;28;20733;-79
2023/04/25 05:26:03;;;;;;;14.03;7.17;;;;;;;;;;5112019;28;20325;-79
2023/04/25 05:28:30;;;;;;;14.83;7.47;;;;;;;;;;5111606;28;20312;-78
2023/04/25 05:30:57;;;;;;;13.30;6.87;;;;;;;;;;5112357;28;20194;-78
2023/04/25 05:33:24;;;;;;;13.70;6.40;;;;;;;;;;5112193;28;20299;-78
2023/04/25 05:35:52;;;;;;;15.23;7.70;;;;;;;;;;5112037;28;20760;-78
2023/04/25 05:38:19;;;;;;;17.23;7.73;;;;;;;;;;5112376;28;20645;-78
2023/04/25 05:40:47;;;;;;;12.13;6.93;;;;;;;;;;5111983;28;20283;-78
2023/04/25 05:43:14;;;;;;;16.30;7.23;;;;;;;;;;5111191;28;20267;-77
2023/04/25 05:45:42;;;;;;;13.03;7.17;;;;;;;;;;5111754;28;20288;-78
2023/04/25 05:48:09;;;;;;;10.60;7.57;;;;;;;;;;5111376;28;20614;-79
2023/04/25 05:50:36;;;;;;;13.17;7.17;;;;;;;;;;5111980;28;20674;-78
2023/04/25 05:53:05;;;;;;;14.57;8.43;;;;;;;;;;5111967;28;20232;-78
2023/04/25 05:55:32;;;;;;;18.47;8.10;;;;;;;;;;5112017;28;20289;-78
2023/04/25 05:58:01;;;;;;;14.77;7.80;;;;;;;;;;5111239;28;20233;-78
2023/04/25 06:00:28;;;;;;;11.93;7.07;;;;;;;;;;5111685;28;20724;-78
2023/04/25 06:02:55;;;;;;;13.83;6.03;;;;;;;;;;5111715;28;20196;-78
2023/04/25 06:05:22;;;;;;;9.73;5.80;;;;;;;;;;5111657;28;20202;-78
2023/04/25 06:07:50;;;;;;;11.83;6.70;;;;;;;;;;5111760;28;20235;-77
2023/04/25 06:10:17;;;;;;;11.27;6.33;;;;;;;;;;5111881;28;20283;-77
2023/04/25 06:12:45;;;;;;;11.97;6.30;;;;;;;;;;5111251;28;20562;-78
2023/04/25 06:15:14;;;;;;;13.10;6.83;;;;;;;;;;5111806;28;20297;-78
2023/04/25 06:17:41;;;;;;;14.97;6.63;;;;;;;;;;5111765;28;20276;-78
2023/04/25 06:20:09;;;;;;;13.50;6.83;;;;;;;;;;5111617;28;20229;-78
2023/04/25 06:22:36;;;;;;;13.80;7.00;;;;;;;;;;5111338;28;20693;-78
2023/04/25 06:25:04;;;;;;;15.57;7.27;;;;;;;;;;5111545;28;20292;-79
2023/04/25 06:27:31;;;;;;;12.73;7.27;;;;;;;;;;5111548;28;20268;-78
2023/04/25 06:29:58;;;;;;;16.30;7.60;;;;;;;;;;5111521;28;20292;-78
2023/04/25 06:32:29;;;;;;;16.33;7.47;;;;;;;;;;5111623;28;20289;-79
2023/04/25 06:34:57;;;;;;;14.37;7.13;;;;;;;;;;5111497;28;20746;-78
2023/04/25 06:37:25;;;;;;;15.03;7.20;;;;;;;;;;5111343;28;20201;-78
2023/04/25 06:39:52;;;;;;;13.93;6.83;;;;;;;;;;5110967;28;20676;-79
2023/04/25 06:42:19;;;;;;;14.07;6.53;;;;;;;;;;5111542;28;20268;-79
2023/04/25 06:44:46;;;;;;;11.57;7.20;;;;;;;;;;5111360;28;20196;-78
2023/04/25 06:47:14;;;;;;;14.23;6.50;;;;;;;;;;5111111;28;20324;-78
2023/04/25 06:49:42;;;;;;;10.53;6.23;;;;;;;;;;5111087;28;20194;-78
2023/04/25 06:52:10;;;;;;;10.57;6.33;;;;;;;;;;5111146;28;20296;-79
2023/04/25 06:54:37;;;;;;;10.07;5.67;;;;;;;;;;5110812;28;20773;-79
2023/04/25 06:57:04;;;;;;;9.30;5.27;;;;;;;;;;5111882;28;20757;-79
2023/04/25 06:59:32;;;;;;;6.77;5.10;;;;;;;;;;5112191;28;20754;-78
2023/04/25 07:01:59;;;;;;;8.20;6.30;;;;;;;;;;5114972;28;20190;-79
2023/04/25 07:04:27;;;;;;;9.67;6.40;;;;;;;;;;5115132;28;20225;-79
2023/04/25 07:06:55;;;;;;;9.67;5.70;;;;;;;;;;5114945;28;20286;-78
2023/04/25 07:09:22;;;;;;;8.53;5.30;;;;;;;;;;5114289;28;20197;-79
2023/04/25 07:11:49;;;;;;;7.87;5.17;;;;;;;;;;5114685;28;20292;-77
2023/04/25 07:14:17;;;;;;;9.93;5.40;;;;;;;;;;5114629;28;20689;-79
2023/04/25 07:16:44;;;;;;;6.50;5.23;;;;;;;;;;5114501;28;20217;-78
2023/04/25 07:19:11;;;;;;;8.90;5.13;;;;;;;;;;5114586;28;20255;-78
2023/04/25 07:21:38;;;;;;;8.60;5.03;;;;;;;;;;5114740;28;20217;-79
2023/04/25 07:24:07;;;;;;;9.20;5.00;;;;;;;;;;5114291;28;20270;-79
2023/04/25 07:26:34;;;;;;;9.43;5.43;;;;;;;;;;5114351;28;20316;-80
2023/04/25 07:29:02;;;;;;;8.27;5.83;;;;;;;;;;5114358;28;20288;-79
2023/04/25 07:31:29;;;;;;;7.50;5.33;;;;;;;;;;5114282;28;20631;-77
2023/04/25 07:33:56;;;;;;;8.27;5.27;;;;;;;;;;5114675;28;20266;-78
2023/04/25 07:36:23;;;;;;;9.87;5.63;;;;;;;;;;5114341;28;20276;-77
2023/04/25 07:38:50;;;;;;;11.17;5.87;;;;;;;;;;5113690;28;20228;-79
2023/04/25 07:41:19;;;;;;;7.90;5.60;;;;;;;;;;5114084;28;20224;-78
2023/04/25 07:43:46;;;;;;;8.50;5.57;;;;;;;;;;5114229;28;20286;-78
2023/04/25 07:46:13;;;;;;;7.67;5.60;;;;;;;;;;5113825;28;20734;-78
2023/04/25 07:48:40;;;;;;;8.23;5.47;;;;;;;;;;5113827;28;20290;-78
2023/04/25 07:51:08;;;;;;;6.97;5.00;;;;;;;;;;5114025;28;20193;-78
2023/04/25 07:53:37;;;;;;;6.57;4.93;;;;;;;;;;5113501;28;20240;-77
2023/04/25 07:56:04;;;;;;;8.35;5.07;;;;;;;;;;5114329;28;20238;-76
2023/04/25 07:58:33;;;;;;;6.47;4.55;;;;;;;;;;5113704;28;20281;-79
2023/04/25 08:01:00;;;;;;;9.65;5.50;;;;;;;;;;5114127;28;20659;-79
2023/04/25 08:03:27;;;;;;;7.65;4.60;;;;;;;;;;5113651;28;20621;-79
2023/04/25 08:05:55;;;;;;;10.13;5.35;;;;;;;;;;5113554;28;20765;-77
2023/04/25 08:08:22;;;;;;;9.15;5.45;;;;;;;;;;5113137;28;20225;-79
2023/04/25 08:10:49;;;;;;;6.57;5.00;;;;;;;;;;5113827;28;20292;-79
2023/04/25 08:13:17;;;;;;;7.40;5.27;;;;;;;;;;5113700;28;20194;-78
2023/04/25 08:15:45;;;;;;;7.60;5.17;;;;;;;;;;5113695;28;20284;-78
2023/04/25 08:18:12;;;;;;;7.63;5.50;;;;;;;;;;5113769;28;20300;-79
2023/04/25 08:20:40;;;;;;;10.97;5.53;;;;;;;;;;5113177;28;20879;-78
2023/04/25 08:23:07;;;;;;;9.83;5.30;;;;;;;;;;5113112;28;20246;-78
2023/04/25 08:25:35;;;;;;;6.07;5.10;;;;;;;;;;5113821;28;20221;-78
2023/04/25 08:28:03;;;;;;;7.23;4.70;;;;;;;;;;5113176;28;20224;-79
2023/04/25 08:30:30;;;;;;;6.47;4.97;;;;;;;;;;5113234;28;20198;-79
2023/04/25 08:32:59;;;;;;;8.07;4.80;;;;;;;;;;5113236;28;20198;-78
2023/04/25 08:35:26;;;;;;;7.63;4.90;;;;;;;;;;5113339;28;20288;-79
2023/04/25 08:37:53;;;;;;;7.80;4.83;;;;;;;;;;5112610;28;20293;-79
2023/04/25 08:40:25;;;;;;;7.70;5.00;;;;;;;;;;5113014;28;20193;-79
2023/04/25 08:42:55;;;;;;;6.57;4.47;;;;;;;;;;5112762;28;20257;-79
2023/04/25 08:45:22;;;;;;;8.73;4.53;;;;;;;;;;5113116;28;20190;-79
2023/04/25 08:47:49;;;;;;;7.63;4.90;;;;;;;;;;5112850;28;20320;-79
2023/04/25 08:50:19;;;;;;;7.73;5.13;;;;;;;;;;5112340;28;20579;-79
2023/04/25 08:52:46;;;;;;;7.10;4.80;;;;;;;;;;5113166;28;20193;-79
2023/04/25 08:55:14;;;;;;;6.90;4.43;;;;;;;;;;5112777;28;20189;-78
2023/04/25 08:57:43;;;;;;;5.80;4.20;;;;;;;;;;5112664;28;20204;-79
2023/04/25 09:00:11;;;;;;;7.13;4.53;;;;;;;;;;5112493;28;20190;-78
2023/04/25 09:02:39;;;;;;;7.07;4.27;;;;;;;;;;5112779;28;20284;-79
2023/04/25 09:05:09;;;;;;;5.83;4.30;;;;;;;;;;5112047;28;20194;-79
2023/04/25 09:07:37;;;;;;;5.67;3.80;;;;;;;;;;5112315;28;20225;-78
2023/04/25 09:10:05;;;;;;;8.33;4.10;;;;;;;;;;5112484;28;20186;-79
2023/04/25 09:12:33;;;;;;;7.20;4.57;;;;;;;;;;5112542;28;20714;-79
2023/04/25 09:15:07;;;;;;;6.40;4.67;;;;;;;;;;5112505;28;20198;-79
2023/04/25 09:17:35;;;;;;;6.70;4.13;;;;;;;;;;5112475;28;20193;-79
2023/04/25 09:20:09;;;;;;;5.73;4.33;;;;;;;;;;5112028;28;20607;-79
2023/04/25 09:22:38;;;;;;;5.33;3.80;;;;;;;;;;5111794;28;20225;-79
2023/04/25 09:25:09;;;;;;;6.07;3.73;;;;;;;;;;5112521;28;20240;-79
2023/04/25 09:27:36;;;;;;;5.77;4.17;;;;;;;;;;5112383;28;20229;-79
2023/04/25 09:30:04;;;;;;;5.10;4.23;;;;;;;;;;5112008;28;20666;-78
2023/04/25 09:32:31;;;;;;;7.53;4.30;;;;;;;;;;5112106;28;20190;-79
2023/04/25 09:34:59;;;;;;;5.17;4.30;;;;;;;;;;5111619;28;20232;-79
2023/04/25 09:37:27;;;;;;;7.50;4.60;;;;;;;;;;5111854;28;20255;-79
2023/04/25 09:39:57;;;;;;;8.00;4.37;;;;;;;;;;5111830;28;20284;-79
2023/04/25 09:42:24;;;;;;;6.27;3.60;;;;;;;;;;5111994;28;20253;-79
2023/04/25 09:44:53;;;;;;;6.03;3.63;;;;;;;;;;5112275;28;20194;-79
2023/04/25 09:47:23;;;;;;;6.53;3.70;;;;;;;;;;5111893;28;20316;-79
2023/04/25 09:49:50;;;;;;;7.20;3.60;;;;;;;;;;5111612;28;20198;-80
2023/04/25 09:52:18;;;;;;;6.23;3.53;;;;;;;;;;5111771;28;20685;-79
2023/04/25 09:54:45;;;;;;;3.90;3.07;;;;;;;;;;5112031;28;20737;-78
2023/04/25 09:57:15;;;;;;;6.10;3.10;;;;;;;;;;5111641;28;20202;-79
2023/04/25 09:59:45;;;;;;;6.57;2.97;;;;;;;;;;5111865;28;20636;-79
2023/04/25 10:02:13;;;;;;;6.77;3.40;;;;;;;;;;5112210;28;20200;-79
2023/04/25 10:04:40;;;;;;;3.60;3.10;;;;;;;;;;5111338;28;20284;-79
2023/04/25 10:07:08;;;;;;;3.83;2.60;;;;;;;;;;5112012;28;20288;-79
2023/04/25 10:09:39;;;;;;;5.30;3.40;;;;;;;;;;5111644;28;20831;-79
2023/04/25 10:12:07;;;;;;;4.67;2.90;;;;;;;;;;5111660;28;20198;-79
2023/04/25 10:14:35;;;;;;;4.40;2.97;;;;;;;;;;5111589;28;20202;-79
2023/04/25 10:17:03;;;;;;;4.37;2.33;;;;;;;;;;5112098;28;20612;-79
2023/04/25 10:19:30;;;;;;;3.53;2.30;;;;;;;;;;5111225;28;20717;-79
2023/04/25 10:22:01;;;;;;;3.80;2.63;;;;;;;;;;5111585;28;20206;-79
2023/04/25 10:24:28;;;;;;;5.07;2.90;;;;;;;;;;5111599;28;20805;-79
2023/04/25 10:26:55;;;;;;;4.70;2.87;;;;;;;;;;5111526;28;20204;-79
2023/04/25 10:29:24;;;;;;;4.10;2.93;;;;;;;;;;5111484;28;20312;-80
2023/04/25 10:31:52;;;;;;;4.00;2.60;;;;;;;;;;5111352;28;20571;-79
2023/04/25 10:34:20;;;;;;;4.33;3.27;;;;;;;;;;5114395;28;20285;-79
2023/04/25 10:36:51;;;;;;;8.20;3.40;;;;;;;;;;5115391;28;20276;-79
2023/04/25 10:39:23;;;;;;;4.93;2.90;;;;;;;;;;5115391;28;20198;-79
2023/04/25 10:41:54;;;;;;;4.50;3.10;;;;;;;;;;5115364;28;20309;-79
2023/04/25 10:44:21;;;;;;;4.00;2.80;;;;;;;;;;5115963;28;20216;-80
2023/04/25 10:46:49;;;;;;;4.93;3.20;;;;;;;;;;5114828;28;20292;-78
2023/04/25 10:49:31;;;;;;;4.57;2.85;;;;;;;;;;5115161;28;20226;-80
2023/04/25 10:52:15;;;;;;;3.40;2.67;;;;;;;;;;5115245;28;20196;-79
2023/04/25 10:54:43;;;;;;;4.70;2.63;;;;;;;;;;5115438;28;20204;-79
2023/04/25 10:57:25;;;;;;;5.20;2.90;;;;;;;;;;5115051;28;20197;-79
2023/04/25 10:59:52;;;;;;;4.35;2.38;;;;;;;;;;5115064;28;20785;-79
2023/04/25 11:02:20;;;;;;;5.93;2.90;;;;;;;;;;5114428;28;20665;-79
2023/04/25 11:04:49;;;;;;;4.88;2.58;;;;;;;;;;5114781;28;20696;-79
2023/04/25 11:07:23;;;;;;;4.63;3.00;;;;;;;;;;5115309;28;20282;-79
2023/04/25 11:09:50;;;;;;;4.28;2.72;;;;;;;;;;5114625;28;20684;-80
2023/04/25 11:12:17;;;;;;;3.83;2.80;;;;;;;;;;5115285;28;20197;-79
2023/04/25 11:14:45;;;;;;;4.83;2.40;;;;;;;;;;5114495;28;20718;-80
2023/04/25 11:17:12;;;;;;;3.72;2.90;;;;;;;;;;5114150;28;20709;-80
2023/04/25 11:19:40;;;;;;;3.97;2.53;;;;;;;;;;5114833;28;20234;-79
2023/04/25 11:22:08;;;;;;;4.47;3.10;;;;;;;;;;5114652;28;20669;-79
2023/04/25 11:24:36;;;;;;;3.90;3.10;;;;;;;;;;5114821;28;20607;-79
2023/04/25 11:27:03;;;;;;;4.67;3.27;;;;;;;;;;5114800;28;20196;-80
2023/04/25 11:29:31;;;;;;;4.43;3.10;;;;;;;;;;5114413;28;20324;-79
2023/04/25 11:31:58;;;;;;;5.13;3.38;;;;;;;;;;5113800;28;20619;-79
2023/04/25 11:34:26;;;;;;;6.13;3.50;;;;;;;;;;5114367;28;20194;-79
2023/04/25 11:36:53;;;;;;;6.37;3.60;;;;;;;;;;5114297;28;20217;-79
2023/04/25 11:39:22;;;;;;;5.73;3.80;;;;;;;;;;5114484;28;20284;-79
2023/04/25 11:41:50;;;;;;;4.43;3.30;;;;;;;;;;5114233;28;20268;-79
2023/04/25 11:44:18;;;;;;;4.73;3.50;;;;;;;;;;5114100;28;20608;-79
2023/04/25 11:46:46;;;;;;;4.37;3.67;;;;;;;;;;5113390;28;20197;-79
2023/04/25 11:49:13;;;;;;;4.87;3.50;;;;;;;;;;5114031;28;20253;-79
2023/04/25 11:51:41;;;;;;;3.60;3.07;;;;;;;;;;5113898;28;20950;-79
2023/04/25 11:54:08;;;;;;;5.38;3.30;;;;;;;;;;5114052;28;20198;-79
2023/04/25 11:56:36;;;;;;;5.05;3.47;;;;;;;;;;5114168;28;20232;-80
2023/04/25 11:59:05;;;;;;;4.00;3.17;;;;;;;;;;5113819;28;20292;-79
2023/04/25 12:01:33;;;;;;;5.97;3.22;;;;;;;;;;5113734;28;20658;-80
2023/04/25 12:04:00;;;;;;;7.28;3.78;;;;;;;;;;5113622;28;20197;-80
2023/04/25 12:06:28;;;;;;;3.90;3.20;;;;;;;;;;5113908;28;20226;-80
2023/04/25 12:09:02;;;;;;;5.40;3.67;;;;;;;;;;5113912;28;20233;-79
2023/04/25 12:11:31;;;;;;;5.15;3.60;;;;;;;;;;5113675;28;20645;-80
2023/04/25 12:14:05;;;;;;;4.72;3.30;;;;;;;;;;5113197;28;20200;-79
2023/04/25 12:16:42;;;;;;;5.93;3.33;;;;;;;;;;5113626;28;20666;-80
2023/04/25 12:19:09;;;;;;;4.13;3.33;;;;;;;;;;5113470;28;20687;-78
2023/04/25 12:21:36;;;;;;;4.15;3.45;;;;;;;;;;5113353;28;20655;-80
2023/04/25 12:24:11;;;;;;;4.93;3.22;;;;;;;;;;5113597;28;20293;-80
2023/04/25 12:26:48;;;;;;;6.43;3.85;;;;;;;;;;5113487;28;20200;-80
2023/04/25 12:29:18;;;;;;;6.18;3.92;;;;;;;;;;5113030;28;20317;-79
2023/04/25 12:31:46;;;;;;;4.85;3.47;;;;;;;;;;5113258;28;20197;-79
2023/04/25 12:34:13;;;;;;;4.72;3.75;;;;;;;;;;5113359;28;20193;-80
2023/04/25 12:36:40;;;;;;;4.20;3.47;;;;;;;;;;5113569;28;20289;-80
2023/04/25 12:39:08;;;;;;;6.28;3.22;;;;;;;;;;5113171;28;20282;-80
2023/04/25 12:41:35;;;;;;;4.40;3.63;;;;;;;;;;5112941;28;20243;-79
2023/04/25 12:44:02;;;;;;;3.50;3.20;;;;;;;;;;5112460;28;20284;-80
2023/04/25 12:46:30;;;;;;;5.15;3.40;;;;;;;;;;5113472;28;20280;-79
2023/04/25 12:48:58;;;;;;;4.18;3.25;;;;;;;;;;5113146;28;20294;-80
2023/04/25 12:51:27;;;;;;;4.38;3.30;;;;;;;;;;5112933;28;20285;-80
2023/04/25 12:53:55;;;;;;;5.65;3.67;;;;;;;;;;5112696;28;20194;-80
2023/04/25 12:56:22;;;;;;;3.85;3.33;;;;;;;;;;5112259;28;20288;-80
2023/04/25 12:58:49;;;;;;;5.85;4.20;;;;;;;;;;5111949;28;20284;-79
2023/04/25 13:01:16;;;;;;;6.40;3.80;;;;;;;;;;5112887;28;20572;-80
2023/04/25 13:03:45;;;;;;;6.00;3.50;;;;;;;;;;5112885;28;20210;-80
2023/04/25 13:06:12;;;;;;;5.47;3.20;;;;;;;;;;5112973;28;20190;-79
2023/04/25 13:08:41;;;;;;;5.20;3.60;;;;;;;;;;5112246;28;20230;-79
2023/04/25 13:11:08;;;;;;;4.97;3.50;;;;;;;;;;5112263;28;20200;-78
2023/04/25 13:13:35;;;;;;;5.43;3.90;;;;;;;;;;5112662;28;20285;-79
2023/04/25 13:16:02;;;;;;;3.70;3.40;;;;;;;;;;5112308;28;20225;-80
2023/04/25 13:18:29;;;;;;;4.13;3.73;;;;;;;;;;5112597;28;20197;-80
2023/04/25 13:20:59;;;;;;;3.87;3.23;;;;;;;;;;5112667;28;20221;-78
2023/04/25 13:23:27;;;;;;;4.93;3.80;;;;;;;;;;5112658;28;20216;-79
2023/04/25 13:25:55;;;;;;;5.50;3.63;;;;;;;;;;5111886;28;20249;-79
2023/04/25 13:28:22;;;;;;;6.27;3.57;;;;;;;;;;5112149;28;20704;-79
2023/04/25 13:30:49;;;;;;;4.95;3.83;;;;;;;;;;5112145;28;20235;-81
2023/04/25 13:33:16;;;;;;;5.72;3.85;;;;;;;;;;5112578;28;20686;-79
2023/04/25 13:35:46;;;;;;;5.03;4.10;;;;;;;;;;5112244;28;20284;-80
2023/04/25 13:38:15;;;;;;;4.80;4.03;;;;;;;;;;5112126;28;20196;-80
2023/04/25 13:40:42;;;;;;;3.85;3.25;;;;;;;;;;5111694;28;20636;-80
2023/04/25 13:43:09;;;;;;;4.32;3.90;;;;;;;;;;5111810;28;20221;-80
2023/04/25 13:45:36;;;;;;;4.88;4.30;;;;;;;;;;5112120;28;20205;-80
2023/04/25 13:48:04;;;;;;;7.15;4.40;;;;;;;;;;5111991;28;20296;-80
2023/04/25 13:50:31;;;;;;;4.80;3.67;;;;;;;;;;5111626;28;20221;-79
2023/04/25 13:52:58;;;;;;;5.18;3.85;;;;;;;;;;5112028;28;20201;-80
2023/04/25 13:55:27;;;;;;;5.70;4.07;;;;;;;;;;5111453;28;20696;-80
2023/04/25 13:57:55;;;;;;;6.68;4.63;;;;;;;;;;5111861;28;20244;-80
2023/04/25 14:00:22;;;;;;;4.13;3.72;;;;;;;;;;5112002;28;20201;-80
2023/04/25 14:02:49;;;;;;;5.45;3.63;;;;;;;;;;5111919;28;20229;-79
2023/04/25 14:05:16;;;;;;;5.10;3.85;;;;;;;;;;5111662;28;20654;-80
2023/04/25 14:07:44;;;;;;;5.68;3.72;;;;;;;;;;5111861;28;20630;-80
2023/04/25 14:10:11;;;;;;;5.45;4.07;;;;;;;;;;5115234;28;20276;-80
2023/04/25 14:12:40;;;;;;;4.75;3.47;;;;;;;;;;5115974;28;20221;-80
2023/04/25 14:15:07;;;;;;;3.95;3.45;;;;;;;;;;5116071;28;20205;-80
2023/04/25 14:17:35;;;;;;;5.03;4.18;;;;;;;;;;5115741;28;20193;-80
2023/04/25 14:20:05;;;;;;;5.15;4.18;;;;;;;;;;5115891;28;20197;-80
2023/04/25 14:22:32;;;;;;;4.45;3.97;;;;;;;;;;5115613;28;20592;-80
2023/04/25 14:25:00;;;;;;;6.97;3.72;;;;;;;;;;5115410;28;20280;-79
2023/04/25 14:27:27;;;;;;;5.10;3.80;;;;;;;;;;5115684;28;20213;-79
2023/04/25 14:29:56;;;;;;;6.10;3.57;;;;;;;;;;5115607;28;20229;-80
2023/04/25 14:32:23;;;;;;;5.63;3.67;;;;;;;;;;5115523;28;20284;-79
2023/04/25 14:34:50;;;;;;;4.70;3.53;;;;;;;;;;5115269;28;20194;-79
2023/04/25 14:37:17;;;;;;;6.57;3.87;;;;;;;;;;5115467;28;20216;-79
2023/04/25 14:39:45;;;;;;;5.27;3.73;;;;;;;;;;5115438;28;20193;-79